createdAt,value
2019-02-09T00:01:27.815Z,89.62
2019-02-09T00:03:57.266Z,89.61
2019-02-09T00:06:25.315Z,89.39
2019-02-09T00:08:53.307Z,89.99
2019-02-09T00:11:21.330Z,90.14
2019-02-09T00:13:49.418Z,89.94
2019-02-09T00:16:17.412Z,89.70
2019-02-09T00:18:45.293Z,89.41
2019-02-09T00:21:13.228Z,89.35
2019-02-09T00:23:41.390Z,89.45
2019-02-09T00:26:09.329Z,89.41
2019-02-09T00:28:37.220Z,89.01
2019-02-09T00:31:05.263Z,89.07
2019-02-09T00:33:33.280Z,89.05
2019-02-09T00:36:01.387Z,89.19
2019-02-09T00:38:29.306Z,88.88
2019-02-09T00:40:57.251Z,89.31
2019-02-09T00:43:25.441Z,89.33
2019-02-09T00:45:53.404Z,89.46
2019-02-09T00:48:21.330Z,90.27
2019-02-09T00:50:49.483Z,91.51
2019-02-09T00:53:18.484Z,91.30
2019-02-09T00:55:46.528Z,90.60
2019-02-09T00:58:15.680Z,90.30
2019-02-09T01:00:43.751Z,90.07
2019-02-09T01:03:12.443Z,90.15
2019-02-09T01:05:42.462Z,90.26
2019-02-09T01:08:10.441Z,91.27
2019-02-09T01:10:38.511Z,91.17
2019-02-09T01:13:06.598Z,91.28
2019-02-09T01:15:34.541Z,91.00
2019-02-09T01:18:02.699Z,90.77
2019-02-09T01:20:30.708Z,90.24
2019-02-09T01:22:58.772Z,90.29
2019-02-09T01:25:26.946Z,90.21
2019-02-09T01:27:54.763Z,90.29
2019-02-09T01:30:23.809Z,90.48
2019-02-09T01:32:51.734Z,90.72
2019-02-09T01:35:20.041Z,90.67
2019-02-09T01:37:48.362Z,90.92
2019-02-09T01:40:19.006Z,91.27
2019-02-09T01:42:47.303Z,92.05
2019-02-09T01:45:21.583Z,92.42
2019-02-09T01:47:49.782Z,92.68
2019-02-09T01:50:17.950Z,92.20
2019-02-09T01:52:45.954Z,92.12
2019-02-09T01:55:14.054Z,92.42
2019-02-09T01:57:42.347Z,92.02
2019-02-09T02:00:15.548Z,91.93
2019-02-09T02:02:43.389Z,91.77
2019-02-09T02:05:12.027Z,91.56
2019-02-09T02:07:40.226Z,91.46
2019-02-09T02:10:11.906Z,91.50
2019-02-09T02:12:39.573Z,91.76
2019-02-09T02:15:10.591Z,91.58
2019-02-09T02:17:38.725Z,91.44
2019-02-09T02:20:08.979Z,91.53
2019-02-09T02:22:36.870Z,91.93
2019-02-09T02:25:05.524Z,91.88
2019-02-09T02:27:33.500Z,91.55
2019-02-09T02:30:01.531Z,91.35
2019-02-09T02:32:29.341Z,91.40
2019-02-09T02:34:57.247Z,91.79
2019-02-09T02:37:25.314Z,92.28
2019-02-09T02:39:53.449Z,91.96
2019-02-09T02:42:21.345Z,92.46
2019-02-09T02:44:49.162Z,91.99
2019-02-09T02:47:17.166Z,91.97
2019-02-09T02:49:45.323Z,92.11
2019-02-09T02:52:13.314Z,91.80
2019-02-09T02:54:41.227Z,91.59
2019-02-09T02:57:09.156Z,91.33
2019-02-09T02:59:37.290Z,92.19
2019-02-09T03:02:05.283Z,91.59
2019-02-09T03:04:33.182Z,91.91
2019-02-09T03:07:01.282Z,91.58
2019-02-09T03:09:29.160Z,91.44
2019-02-09T03:11:57.093Z,91.90
2019-02-09T03:14:25.357Z,91.85
2019-02-09T03:16:54.135Z,91.53
2019-02-09T03:19:22.214Z,91.37
2019-02-09T03:21:49.973Z,91.80
2019-02-09T03:24:17.924Z,92.13
2019-02-09T03:26:45.803Z,92.00
2019-02-09T03:29:13.860Z,91.48
2019-02-09T03:31:41.852Z,91.25
2019-02-09T03:34:09.799Z,91.68
2019-02-09T03:36:37.783Z,92.31
2019-02-09T03:39:07.371Z,92.53
2019-02-09T03:41:35.172Z,92.52
2019-02-09T03:44:03.299Z,92.39
2019-02-09T03:46:31.308Z,92.66
2019-02-09T03:48:59.283Z,92.33
2019-02-09T03:51:27.342Z,92.20
2019-02-09T03:53:55.269Z,92.00
2019-02-09T03:56:23.194Z,92.08
2019-02-09T03:58:51.212Z,92.30
2019-02-09T04:01:19.126Z,92.19
2019-02-09T04:03:47.242Z,91.77
2019-02-09T04:06:15.273Z,91.87
2019-02-09T04:08:43.082Z,91.50
2019-02-09T04:11:12.737Z,91.54
2019-02-09T04:13:40.801Z,91.27
2019-02-09T04:16:08.779Z,91.31
2019-02-09T04:18:36.798Z,91.01
2019-02-09T04:21:04.830Z,90.75
2019-02-09T04:23:32.996Z,91.03
2019-02-09T04:26:00.872Z,91.88
2019-02-09T04:28:29.211Z,91.98
2019-02-09T04:31:05.440Z,91.70
2019-02-09T04:33:27.154Z,91.65
2019-02-09T04:35:55.060Z,91.72
2019-02-09T04:38:23.176Z,91.73
2019-02-09T04:40:51.202Z,91.49
2019-02-09T04:43:19.183Z,91.28
2019-02-09T04:45:47.160Z,91.17
2019-02-09T04:48:15.255Z,91.69
2019-02-09T04:50:43.338Z,91.56
2019-02-09T04:53:11.625Z,91.39
2019-02-09T04:55:39.655Z,91.47
2019-02-09T04:58:07.905Z,91.66
2019-02-09T05:00:35.977Z,93.68
2019-02-09T05:03:05.270Z,92.84
2019-02-09T05:05:33.532Z,92.57
2019-02-09T05:08:01.392Z,92.30
2019-02-09T05:10:29.488Z,92.24
2019-02-09T05:12:57.562Z,92.21
2019-02-09T05:15:25.646Z,92.09
2019-02-09T05:17:53.545Z,91.85
2019-02-09T05:20:22.176Z,92.23
2019-02-09T05:22:50.104Z,91.93
2019-02-09T05:25:18.422Z,92.04
2019-02-09T05:27:47.500Z,92.68
2019-02-09T05:30:17.333Z,92.60
2019-02-09T05:32:45.226Z,92.82
2019-02-09T05:35:13.684Z,93.17
2019-02-09T05:37:41.607Z,93.61
2019-02-09T05:40:10.748Z,93.13
2019-02-09T05:42:38.766Z,93.00
2019-02-09T05:45:08.537Z,92.69
2019-02-09T05:47:36.527Z,92.28
2019-02-09T05:50:05.323Z,92.18
2019-02-09T05:52:33.237Z,92.12
2019-02-09T05:55:03.982Z,92.01
2019-02-09T05:57:31.882Z,92.42
2019-02-09T05:59:59.933Z,92.73
2019-02-09T06:02:28.044Z,92.16
2019-02-09T06:04:56.082Z,92.08
2019-02-09T06:07:23.999Z,92.00
2019-02-09T06:09:52.550Z,91.97
2019-02-09T06:12:20.341Z,92.39
2019-02-09T06:14:48.469Z,92.21
2019-02-09T06:17:16.784Z,92.19
2019-02-09T06:19:44.865Z,91.78
2019-02-09T06:22:12.934Z,92.00
2019-02-09T06:24:40.955Z,92.12
2019-02-09T06:27:08.919Z,92.92
2019-02-09T06:29:36.950Z,93.26
2019-02-09T06:32:05.035Z,93.46
2019-02-09T06:34:33.005Z,93.49
2019-02-09T06:37:00.931Z,93.70
2019-02-09T06:39:29.066Z,93.44
2019-02-09T06:41:57.155Z,93.14
2019-02-09T06:44:25.136Z,92.96
2019-02-09T06:46:53.248Z,92.82
2019-02-09T06:49:21.252Z,92.32
2019-02-09T06:51:49.372Z,92.52
2019-02-09T06:54:17.451Z,92.49
2019-02-09T06:56:45.517Z,92.44
2019-02-09T06:59:13.616Z,92.21
2019-02-09T07:01:48.555Z,92.31
2019-02-09T07:04:13.194Z,91.99
2019-02-09T07:06:41.226Z,91.86
2019-02-09T07:09:09.154Z,91.55
2019-02-09T07:11:37.002Z,91.20
2019-02-09T07:14:05.043Z,91.78
2019-02-09T07:16:32.829Z,91.72
2019-02-09T07:19:01.002Z,91.30
2019-02-09T07:21:29.023Z,91.20
2019-02-09T07:23:56.923Z,91.17
2019-02-09T07:26:24.801Z,91.20
2019-02-09T07:28:52.571Z,91.06
2019-02-09T07:31:20.543Z,90.86
2019-02-09T07:33:48.425Z,90.84
2019-02-09T07:36:16.456Z,90.63
2019-02-09T07:38:44.609Z,90.11
2019-02-09T07:41:12.492Z,89.82
2019-02-09T07:43:40.123Z,89.57
2019-02-09T07:46:07.631Z,89.14
2019-02-09T07:48:35.242Z,88.83
2019-02-09T07:51:02.780Z,88.42
2019-02-09T07:53:30.369Z,87.89
2019-02-09T07:55:57.989Z,86.97
2019-02-09T07:58:25.776Z,86.40
2019-02-09T08:00:53.697Z,85.99
2019-02-09T08:03:21.599Z,85.54
2019-02-09T08:05:49.924Z,85.07
2019-02-09T08:08:18.019Z,84.75
2019-02-09T08:10:45.980Z,84.45
2019-02-09T08:13:13.909Z,84.03
2019-02-09T08:15:41.922Z,83.77
2019-02-09T08:18:11.147Z,82.66
2019-02-09T08:20:39.061Z,82.46
2019-02-09T08:23:07.031Z,80.37
2019-02-09T08:25:35.654Z,78.88
2019-02-09T08:28:04.701Z,77.23
2019-02-09T08:30:37.938Z,76.42
2019-02-09T08:33:06.176Z,76.40
2019-02-09T08:35:33.718Z,73.75
2019-02-09T08:38:01.496Z,75.64
2019-02-09T08:40:29.217Z,74.51
2019-02-09T08:42:56.903Z,73.88
2019-02-09T08:45:24.621Z,73.89
2019-02-09T08:47:52.828Z,72.23
2019-02-09T08:50:23.144Z,72.87
2019-02-09T08:52:50.964Z,71.65
2019-02-09T08:55:19.035Z,72.20
2019-02-09T08:57:47.019Z,70.53
2019-02-09T09:00:17.563Z,70.03
2019-02-09T09:02:45.411Z,70.43
2019-02-09T09:05:13.315Z,72.05
2019-02-09T09:07:41.852Z,71.78
2019-02-09T09:10:10.392Z,74.18
2019-02-09T09:12:38.304Z,71.70
2019-02-09T09:15:09.698Z,72.98
2019-02-09T09:17:37.418Z,72.08
2019-02-09T09:20:09.024Z,70.02
2019-02-09T09:22:36.688Z,69.88
2019-02-09T09:25:05.342Z,69.84
2019-02-09T09:27:33.808Z,69.02
2019-02-09T09:30:01.793Z,68.62
2019-02-09T09:32:30.423Z,69.25
2019-02-09T09:34:58.457Z,67.95
2019-02-09T09:37:26.704Z,67.93
2019-02-09T09:39:54.730Z,67.71
2019-02-09T09:42:22.768Z,68.39
2019-02-09T09:44:50.895Z,69.46
2019-02-09T09:47:18.886Z,70.23
2019-02-09T09:49:46.758Z,70.72
2019-02-09T09:52:14.817Z,70.96
2019-02-09T09:54:42.859Z,70.48
2019-02-09T09:57:10.966Z,70.54
2019-02-09T09:59:39.137Z,69.63
2019-02-09T10:02:07.118Z,68.08
2019-02-09T10:04:36.793Z,67.07
2019-02-09T10:07:04.670Z,68.05
2019-02-09T10:09:32.618Z,67.73
2019-02-09T10:12:00.772Z,67.98
2019-02-09T10:14:28.887Z,65.40
2019-02-09T10:16:57.123Z,63.72
2019-02-09T10:19:24.970Z,62.03
2019-02-09T10:21:52.805Z,61.59
2019-02-09T10:24:20.560Z,58.98
2019-02-09T10:26:48.747Z,58.87
2019-02-09T10:29:17.029Z,58.83
2019-02-09T10:31:45.611Z,59.53
2019-02-09T10:34:13.727Z,59.99
2019-02-09T10:36:42.036Z,60.27
2019-02-09T10:39:10.267Z,59.54
2019-02-09T10:41:38.361Z,58.57
2019-02-09T10:44:06.745Z,56.67
2019-02-09T10:46:34.945Z,57.76
2019-02-09T10:49:03.349Z,57.45
2019-02-09T10:51:31.492Z,57.51
2019-02-09T10:53:59.737Z,57.32
2019-02-09T10:56:27.848Z,57.81
2019-02-09T10:58:55.841Z,57.51
2019-02-09T11:01:23.889Z,60.42
2019-02-09T11:03:52.090Z,58.78
2019-02-09T11:06:20.988Z,58.87
2019-02-09T11:08:49.007Z,58.22
2019-02-09T11:11:16.697Z,59.48
2019-02-09T11:13:44.411Z,59.35
2019-02-09T11:16:12.257Z,59.24
2019-02-09T11:18:40.034Z,59.15
2019-02-09T11:21:07.967Z,59.41
2019-02-09T11:23:35.597Z,59.74
2019-02-09T11:26:03.330Z,59.22
2019-02-09T11:28:30.984Z,58.03
2019-02-09T11:30:58.689Z,57.49
2019-02-09T11:33:26.409Z,57.00
2019-02-09T11:35:54.025Z,57.04
2019-02-09T11:38:21.632Z,56.95
2019-02-09T11:40:49.319Z,56.46
2019-02-09T11:43:18.046Z,56.57
2019-02-09T11:45:45.876Z,56.97
2019-02-09T11:48:13.561Z,54.71
2019-02-09T11:50:41.209Z,54.77
2019-02-09T11:53:08.915Z,55.50
2019-02-09T11:55:36.607Z,56.10
2019-02-09T11:58:04.349Z,55.58
2019-02-09T12:00:34.785Z,54.32
2019-02-09T12:03:08.496Z,52.89
2019-02-09T12:05:31.868Z,54.68
2019-02-09T12:07:59.449Z,52.57
2019-02-09T12:10:27.278Z,53.73
2019-02-09T12:12:54.852Z,53.11
2019-02-09T12:15:27.242Z,53.49
2019-02-09T12:17:54.885Z,52.48
2019-02-09T12:20:22.836Z,53.01
2019-02-09T12:22:50.399Z,53.66
2019-02-09T12:25:20.201Z,53.92
2019-02-09T12:27:49.347Z,53.90
2019-02-09T12:30:19.883Z,51.59
2019-02-09T12:32:47.477Z,52.02
2019-02-09T12:35:15.330Z,51.45
2019-02-09T12:37:42.892Z,52.25
2019-02-09T12:40:16.287Z,52.30
2019-02-09T12:42:43.998Z,52.45
2019-02-09T12:45:13.302Z,53.24
2019-02-09T12:47:41.032Z,54.48
2019-02-09T12:50:11.068Z,52.93
2019-02-09T12:52:38.790Z,53.05
2019-02-09T12:55:06.689Z,52.53
2019-02-09T12:57:34.415Z,52.53
2019-02-09T13:00:02.093Z,51.90
2019-02-09T13:02:31.071Z,50.58
2019-02-09T13:04:58.799Z,50.49
2019-02-09T13:07:26.559Z,50.46
2019-02-09T13:09:54.176Z,50.61
2019-02-09T13:12:23.484Z,49.76
2019-02-09T13:14:51.125Z,49.55
2019-02-09T13:17:18.767Z,49.23
2019-02-09T13:19:46.404Z,48.65
2019-02-09T13:22:14.023Z,49.11
2019-02-09T13:24:41.636Z,50.25
2019-02-09T13:27:09.257Z,48.99
2019-02-09T13:29:36.957Z,48.88
2019-02-09T13:32:04.862Z,47.88
2019-02-09T13:34:32.510Z,47.01
2019-02-09T13:37:00.195Z,46.94
2019-02-09T13:39:27.861Z,47.94
2019-02-09T13:41:55.893Z,47.08
2019-02-09T13:44:23.577Z,47.31
2019-02-09T13:46:51.292Z,48.48
2019-02-09T13:49:19.179Z,48.38
2019-02-09T13:51:46.884Z,48.24
2019-02-09T13:54:14.585Z,48.66
2019-02-09T13:56:42.266Z,49.26
2019-02-09T13:59:09.886Z,49.48
2019-02-09T14:01:37.551Z,49.46
2019-02-09T14:04:05.136Z,49.43
2019-02-09T14:06:32.714Z,48.89
2019-02-09T14:09:00.464Z,49.84
2019-02-09T14:11:28.013Z,49.50
2019-02-09T14:13:55.580Z,50.34
2019-02-09T14:16:23.306Z,49.11
2019-02-09T14:18:50.859Z,49.78
2019-02-09T14:21:18.520Z,49.93
2019-02-09T14:23:46.143Z,50.33
2019-02-09T14:26:13.858Z,51.00
2019-02-09T14:28:41.409Z,50.82
2019-02-09T14:31:09.034Z,51.29
2019-02-09T14:33:36.692Z,51.70
2019-02-09T14:36:04.706Z,52.34
2019-02-09T14:38:32.283Z,52.08
2019-02-09T14:41:00.053Z,52.44
2019-02-09T14:43:27.714Z,52.83
2019-02-09T14:45:55.321Z,52.69
2019-02-09T14:48:23.074Z,52.85
2019-02-09T14:50:53.514Z,53.62
2019-02-09T14:53:21.163Z,53.73
2019-02-09T14:55:48.882Z,53.79
2019-02-09T14:58:16.588Z,54.11
2019-02-09T15:00:46.733Z,54.37
2019-02-09T15:03:14.612Z,54.56
2019-02-09T15:05:42.477Z,54.98
2019-02-09T15:08:10.449Z,55.12
2019-02-09T15:10:38.308Z,56.53
2019-02-09T15:13:07.726Z,57.58
2019-02-09T15:15:41.697Z,58.11
2019-02-09T15:18:09.627Z,58.62
2019-02-09T15:20:40.414Z,59.31
2019-02-09T15:23:08.089Z,60.16
2019-02-09T15:25:35.823Z,60.91
2019-02-09T15:28:04.091Z,61.80
2019-02-09T15:30:31.972Z,62.51
2019-02-09T15:32:59.700Z,63.59
2019-02-09T15:35:27.367Z,63.39
2019-02-09T15:37:55.191Z,64.46
2019-02-09T15:40:22.855Z,65.27
2019-02-09T15:42:50.556Z,65.32
2019-02-09T15:45:18.808Z,65.21
2019-02-09T15:47:46.793Z,65.62
2019-02-09T15:50:14.814Z,66.02
2019-02-09T15:52:42.748Z,66.04
2019-02-09T15:55:13.358Z,66.11
2019-02-09T15:57:41.018Z,66.69
2019-02-09T16:00:19.793Z,67.28
2019-02-09T16:02:47.418Z,67.56
2019-02-09T16:05:15.154Z,67.72
2019-02-09T16:07:42.790Z,68.06
2019-02-09T16:10:11.126Z,68.58
2019-02-09T16:12:38.730Z,68.91
2019-02-09T16:15:08.229Z,69.74
2019-02-09T16:17:35.856Z,69.96
2019-02-09T16:20:05.254Z,70.48
2019-02-09T16:22:32.855Z,70.90
2019-02-09T16:25:00.513Z,71.83
2019-02-09T16:27:29.348Z,72.60
2019-02-09T16:29:56.980Z,72.91
2019-02-09T16:32:24.544Z,73.76
2019-02-09T16:34:52.101Z,74.04
2019-02-09T16:37:19.697Z,74.07
2019-02-09T16:39:47.303Z,74.14
2019-02-09T16:42:14.958Z,74.17
2019-02-09T16:44:42.554Z,74.49
2019-02-09T16:47:10.280Z,74.53
2019-02-09T16:49:37.879Z,74.69
2019-02-09T16:52:05.471Z,74.71
2019-02-09T16:54:33.095Z,75.42
2019-02-09T16:57:00.830Z,75.89
2019-02-09T16:59:28.562Z,76.06
2019-02-09T17:01:56.255Z,76.18
2019-02-09T17:04:23.923Z,76.52
2019-02-09T17:06:51.607Z,76.26
2019-02-09T17:09:19.350Z,76.52
2019-02-09T17:11:47.027Z,77.30
2019-02-09T17:14:14.769Z,77.15
2019-02-09T17:16:42.393Z,80.81
2019-02-09T17:19:10.260Z,81.26
2019-02-09T17:21:37.913Z,81.04
2019-02-09T17:24:05.507Z,78.22
2019-02-09T17:26:33.141Z,78.99
2019-02-09T17:29:00.730Z,82.62
2019-02-09T17:31:28.419Z,86.96
2019-02-09T17:33:56.135Z,85.34
2019-02-09T17:36:23.853Z,82.81
2019-02-09T17:38:51.443Z,77.91
2019-02-09T17:41:19.108Z,79.95
2019-02-09T17:43:46.725Z,86.47
2019-02-09T17:46:16.258Z,85.81
2019-02-09T17:48:46.912Z,84.94
2019-02-09T17:51:14.614Z,85.76
2019-02-09T17:53:42.202Z,84.41
2019-02-09T17:56:09.852Z,83.40
2019-02-09T17:58:37.396Z,82.49
2019-02-09T18:01:08.823Z,80.29
2019-02-09T18:03:36.645Z,81.31
2019-02-09T18:06:04.444Z,80.80
2019-02-09T18:08:32.086Z,82.62
2019-02-09T18:10:59.847Z,84.09
2019-02-09T18:13:27.470Z,82.92
2019-02-09T18:15:55.100Z,82.39
2019-02-09T18:18:22.673Z,81.50
2019-02-09T18:20:50.428Z,77.35
2019-02-09T18:23:20.940Z,77.33
2019-02-09T18:25:48.587Z,78.07
2019-02-09T18:28:16.212Z,77.67
2019-02-09T18:30:43.892Z,76.88
2019-02-09T18:33:11.552Z,78.19
2019-02-09T18:35:40.240Z,78.52
2019-02-09T18:38:07.917Z,79.83
2019-02-09T18:40:35.692Z,81.41
2019-02-09T18:43:03.460Z,81.84
2019-02-09T18:45:31.566Z,81.65
2019-02-09T18:47:59.315Z,79.97
2019-02-09T18:50:29.981Z,79.57
2019-02-09T18:52:58.388Z,79.80
2019-02-09T18:55:26.382Z,81.02
2019-02-09T18:57:54.012Z,81.15
2019-02-09T19:00:23.523Z,81.88
2019-02-09T19:02:51.265Z,81.43
2019-02-09T19:05:19.206Z,82.46
2019-02-09T19:07:46.961Z,82.95
2019-02-09T19:10:17.444Z,81.99
2019-02-09T19:12:45.075Z,81.20
2019-02-09T19:15:15.095Z,81.34
2019-02-09T19:17:42.805Z,81.86
2019-02-09T19:20:14.624Z,82.23
2019-02-09T19:22:42.248Z,82.57
2019-02-09T19:25:10.547Z,83.24
2019-02-09T19:27:38.144Z,84.17
2019-02-09T19:30:09.772Z,83.83
2019-02-09T19:32:38.392Z,83.70
2019-02-09T19:35:11.935Z,83.72
2019-02-09T19:37:35.829Z,83.74
2019-02-09T19:40:05.195Z,83.88
2019-02-09T19:42:32.867Z,83.72
2019-02-09T19:45:00.607Z,84.01
2019-02-09T19:47:28.276Z,84.41
2019-02-09T19:49:56.234Z,84.69
2019-02-09T19:52:23.824Z,85.03
2019-02-09T19:54:51.473Z,84.90
2019-02-09T19:57:19.174Z,84.95
2019-02-09T19:59:46.842Z,85.29
2019-02-09T20:02:14.654Z,85.27
2019-02-09T20:04:42.302Z,85.45
2019-02-09T20:07:09.963Z,85.57
2019-02-09T20:09:37.561Z,85.39
2019-02-09T20:12:05.304Z,85.08
2019-02-09T20:14:32.865Z,85.21
2019-02-09T20:17:00.523Z,85.29
2019-02-09T20:19:28.145Z,85.77
2019-02-09T20:21:55.868Z,85.64
2019-02-09T20:24:23.507Z,85.71
2019-02-09T20:26:51.595Z,85.71
2019-02-09T20:29:19.399Z,85.55
2019-02-09T20:31:47.612Z,85.64
2019-02-09T20:34:15.393Z,85.73
2019-02-09T20:36:43.384Z,85.91
2019-02-09T20:39:11.284Z,85.63
2019-02-09T20:41:40.642Z,85.71
2019-02-09T20:44:08.806Z,86.10
2019-02-09T20:46:36.829Z,86.09
2019-02-09T20:49:05.117Z,86.03
2019-02-09T20:51:33.404Z,85.76
2019-02-09T20:54:01.445Z,85.73
2019-02-09T20:56:29.548Z,86.32
2019-02-09T20:58:57.598Z,86.20
2019-02-09T21:01:25.690Z,86.26
2019-02-09T21:03:53.791Z,86.36
2019-02-09T21:06:21.744Z,86.49
2019-02-09T21:08:49.877Z,86.55
2019-02-09T21:11:17.846Z,86.84
2019-02-09T21:13:45.898Z,87.81
2019-02-09T21:16:14.084Z,87.71
2019-02-09T21:18:42.292Z,88.85
2019-02-09T21:21:10.432Z,89.08
2019-02-09T21:23:38.610Z,89.86
2019-02-09T21:26:06.767Z,89.58
2019-02-09T21:28:35.768Z,88.90
2019-02-09T21:31:03.989Z,89.08
2019-02-09T21:33:32.114Z,89.37
2019-02-09T21:35:59.990Z,89.16
2019-02-09T21:38:31.040Z,89.03
2019-02-09T21:40:59.344Z,88.87
2019-02-09T21:43:27.357Z,88.78
2019-02-09T21:45:55.093Z,89.15
2019-02-09T21:48:23.114Z,89.87
2019-02-09T21:50:51.148Z,89.72
2019-02-09T21:53:19.282Z,89.35
2019-02-09T21:55:47.373Z,90.69
2019-02-09T21:58:15.478Z,90.36
2019-02-09T22:00:43.967Z,90.11
2019-02-09T22:03:12.432Z,89.85
2019-02-09T22:05:40.791Z,89.93
2019-02-09T22:08:10.208Z,89.84
2019-02-09T22:10:38.912Z,89.87
2019-02-09T22:13:07.360Z,90.07
2019-02-09T22:15:38.905Z,90.14
2019-02-09T22:18:05.513Z,90.15
2019-02-09T22:20:33.641Z,89.89
2019-02-09T22:23:01.670Z,90.40
2019-02-09T22:25:29.862Z,90.01
2019-02-09T22:27:57.889Z,89.87
2019-02-09T22:30:26.803Z,89.35
2019-02-09T22:32:55.157Z,89.62
2019-02-09T22:35:23.250Z,89.49
2019-02-09T22:37:51.370Z,89.57
2019-02-09T22:40:21.033Z,89.54
2019-02-09T22:42:49.125Z,89.43
2019-02-09T22:45:17.666Z,89.32
2019-02-09T22:47:45.642Z,89.37
2019-02-09T22:50:25.130Z,89.26
2019-02-09T22:52:53.199Z,90.16
2019-02-09T22:55:21.252Z,89.78
2019-02-09T22:57:49.364Z,89.66
2019-02-09T23:00:50.208Z,89.83
2019-02-09T23:03:18.394Z,89.84
2019-02-09T23:06:34.964Z,89.90
2019-02-09T23:09:04.403Z,89.89
2019-02-09T23:11:32.352Z,89.94
2019-02-09T23:14:00.414Z,90.09
2019-02-09T23:16:28.356Z,90.08
2019-02-09T23:18:56.363Z,90.08
2019-02-09T23:21:24.344Z,90.18
2019-02-09T23:23:52.619Z,90.08
2019-02-09T23:26:20.417Z,90.18
2019-02-09T23:28:48.343Z,90.74
2019-02-09T23:31:16.446Z,91.12
2019-02-09T23:33:44.213Z,91.39
2019-02-09T23:36:16.463Z,91.38
2019-02-09T23:38:42.282Z,90.89
2019-02-09T23:41:10.178Z,91.27
2019-02-09T23:43:38.228Z,91.47
2019-02-09T23:46:06.160Z,91.71
2019-02-09T23:48:34.057Z,91.09
2019-02-09T23:51:02.068Z,90.84
2019-02-09T23:53:30.116Z,90.53
2019-02-09T23:55:58.493Z,90.84
2019-02-09T23:58:26.568Z,91.03
